Time;durP1;ratioP1;P1;durP2;ratioP2;P2;SDS_P1;SDS_P2;PMS_P1;PMS_P2;Temp;Humidity;BMP_temperature;BMP_pressure;BME280_temperature;BME280_humidity;BME280_pressure;Samples;Min_cycle;Max_cycle;Signal;HPM_P1;HPM_P2
2022/03/04 00:00:04;;;;;;;0.35;0.35;;;0.40;99.90;;;;;;5138682;27;20078;-91
2022/03/04 00:02:31;;;;;;;0.30;0.30;;;0.30;99.90;;;;;;5121373;27;20126;-91
2022/03/04 00:04:57;;;;;;;0.30;0.30;;;1.60;99.90;;;;;;5121622;27;20459;-90
2022/03/04 00:07:24;;;;;;;0.30;0.30;;;0.30;99.90;;;;;;5121923;27;20043;-92
2022/03/04 00:09:51;;;;;;;0.30;0.30;;;1.50;99.90;;;;;;5104299;27;20039;-90
2022/03/04 00:12:18;;;;;;;0.40;0.40;;;0.20;99.90;;;;;;5121073;27;20043;-90
2022/03/04 00:14:44;;;;;;;0.35;0.35;;;0.20;99.90;;;;;;5138200;27;20080;-90
2022/03/04 00:17:11;;;;;;;0.30;0.30;;;0.20;99.90;;;;;;5137634;27;20047;-91
2022/03/04 00:19:39;;;;;;;0.40;0.40;;;0.80;99.90;;;;;;5121221;27;20096;-91
2022/03/04 00:22:06;;;;;;;0.35;0.35;;;1.30;99.90;;;;;;5121553;27;20180;-90
2022/03/04 00:24:33;;;;;;;0.30;0.30;;;1.10;99.90;;;;;;5104128;27;20496;-90
2022/03/04 00:26:59;;;;;;;0.30;0.30;;;1.10;99.90;;;;;;5103933;27;20139;-89
2022/03/04 00:29:29;;;;;;;0.30;0.30;;;0.10;99.90;;;;;;5104422;27;20127;-91
2022/03/04 00:31:55;;;;;;;0.30;0.30;;;0.60;99.90;;;;;;5104554;27;20200;-90
2022/03/04 00:34:22;;;;;;;0.30;0.30;;;1.40;99.90;;;;;;5120804;27;20523;-91
2022/03/04 00:36:49;;;;;;;0.30;0.30;;;0.90;99.90;;;;;;5103962;27;20038;-91
2022/03/04 00:39:16;;;;;;;0.20;0.20;;;1.30;99.90;;;;;;5104438;27;20039;-92
2022/03/04 00:41:43;;;;;;;0.20;0.20;;;0.00;99.90;;;;;;5120538;27;20567;-90
2022/03/04 00:44:11;;;;;;;0.30;0.30;;;0.90;99.90;;;;;;5137055;27;20039;-89
2022/03/04 00:46:37;;;;;;;0.35;0.35;;;0.10;99.90;;;;;;5120045;27;20070;-91
2022/03/04 00:49:04;;;;;;;0.30;0.30;;;1.10;99.90;;;;;;5120453;27;20411;-90
2022/03/04 00:51:31;;;;;;;0.30;0.30;;;0.70;99.90;;;;;;5120687;27;20039;-90
2022/03/04 00:53:59;;;;;;;0.30;0.30;;;0.20;99.90;;;;;;5120635;27;20031;-91
2022/03/04 00:56:26;;;;;;;0.32;0.32;;;0.70;99.90;;;;;;5120734;27;20404;-91
2022/03/04 00:58:52;;;;;;;0.30;0.30;;;0.90;99.90;;;;;;5118772;27;20043;-90
2022/03/04 01:01:19;;;;;;;0.20;0.20;;;-0.20;99.90;;;;;;5137486;27;20066;-91
2022/03/04 01:03:46;;;;;;;0.30;0.30;;;0.70;99.90;;;;;;5136988;27;20495;-90
2022/03/04 01:06:13;;;;;;;0.28;0.28;;;0.90;99.90;;;;;;5136769;27;20043;-90
2022/03/04 01:08:40;;;;;;;0.60;0.60;;;-0.30;99.90;;;;;;5136817;27;20412;-90
2022/03/04 01:11:06;;;;;;;0.30;0.30;;;0.80;99.90;;;;;;5137271;27;20036;-91
2022/03/04 01:13:33;;;;;;;0.30;0.30;;;-0.30;99.90;;;;;;5119808;27;20184;-90
2022/03/04 01:16:00;;;;;;;0.20;0.20;;;0.90;99.90;;;;;;5119486;27;20046;-90
2022/03/04 01:18:27;;;;;;;0.30;0.30;;;0.70;99.90;;;;;;5119729;27;20055;-90
2022/03/04 01:20:55;;;;;;;0.32;0.32;;;-0.30;99.90;;;;;;5120493;27;20104;-90
2022/03/04 01:23:22;;;;;;;0.30;0.30;;;-0.30;99.90;;;;;;5103085;27;20054;-90
2022/03/04 01:25:52;;;;;;;0.30;0.30;;;-0.30;99.90;;;;;;5136263;27;20047;-90
2022/03/04 01:28:22;;;;;;;0.30;0.30;;;-0.30;99.90;;;;;;5120049;27;20099;-91
2022/03/04 01:30:49;;;;;;;0.30;0.30;;;-0.30;99.90;;;;;;5136104;27;20418;-91
2022/03/04 01:33:16;;;;;;;0.30;0.30;;;0.90;99.90;;;;;;5119752;27;20053;-90
2022/03/04 01:35:43;;;;;;;0.30;0.30;;;-0.30;99.90;;;;;;5119468;27;20133;-91
2022/03/04 01:38:10;;;;;;;0.30;0.30;;;0.50;99.90;;;;;;5119858;27;20074;-91
2022/03/04 01:40:37;;;;;;;0.30;0.30;;;1.00;99.90;;;;;;5136350;27;20097;-91
2022/03/04 01:43:03;;;;;;;0.30;0.30;;;-0.30;99.90;;;;;;5135889;27;20095;-90
2022/03/04 01:45:30;;;;;;;0.40;0.40;;;-0.40;99.90;;;;;;5102806;27;20046;-92
2022/03/04 01:47:57;;;;;;;0.30;0.30;;;-0.40;99.90;;;;;;5118839;27;20038;-90
2022/03/04 01:50:25;;;;;;;0.32;0.32;;;-0.30;99.90;;;;;;5119668;27;20075;-91
2022/03/04 01:52:55;;;;;;;0.30;0.30;;;-0.40;99.90;;;;;;5119110;27;20031;-90
2022/03/04 01:55:21;;;;;;;0.28;0.28;;;0.50;99.90;;;;;;5136170;27;20043;-90
2022/03/04 01:57:48;;;;;;;0.30;0.30;;;0.80;99.90;;;;;;5136280;27;20043;-91
2022/03/04 02:00:15;;;;;;;0.30;0.30;;;-0.50;99.90;;;;;;5119205;27;20480;-90
2022/03/04 02:02:44;;;;;;;0.47;0.40;;;-0.50;99.90;;;;;;5102356;27;20043;-89
2022/03/04 02:05:15;;;;;;;0.30;0.30;;;-0.50;99.90;;;;;;5118940;27;20043;-90
2022/03/04 02:07:43;;;;;;;0.30;0.30;;;0.40;99.90;;;;;;5135898;27;20043;-89
2022/03/04 02:10:11;;;;;;;0.30;0.30;;;-0.30;99.90;;;;;;5119055;27;20071;-91
2022/03/04 02:12:38;;;;;;;1.77;0.40;;;-0.50;99.90;;;;;;5135904;27;20039;-89
2022/03/04 02:15:06;;;;;;;0.35;0.35;;;-0.60;99.90;;;;;;5135577;27;20058;-91
2022/03/04 02:17:34;;;;;;;0.40;0.40;;;-0.60;99.90;;;;;;5135807;27;20100;-90
2022/03/04 02:20:03;;;;;;;0.30;0.30;;;-0.60;99.90;;;;;;5118606;27;20083;-90
2022/03/04 02:22:31;;;;;;;0.30;0.30;;;-0.60;99.90;;;;;;5119270;27;20496;-90
2022/03/04 02:24:58;;;;;;;0.30;0.30;;;-0.60;99.90;;;;;;5101825;27;20035;-91
2022/03/04 02:27:25;;;;;;;0.30;0.30;;;-0.60;99.90;;;;;;5118910;27;20031;-91
2022/03/04 02:29:51;;;;;;;0.40;0.40;;;-1.40;99.90;;;;;;5118086;27;20042;-91
2022/03/04 02:32:18;;;;;;;0.30;0.30;;;0.20;99.90;;;;;;5135407;27;20045;-91
2022/03/04 02:34:46;;;;;;;0.30;0.30;;;-0.60;99.90;;;;;;5118067;27;20141;-90
2022/03/04 02:37:14;;;;;;;0.40;0.40;;;-0.70;99.90;;;;;;5102419;27;20035;-91
2022/03/04 02:39:41;;;;;;;0.40;0.40;;;0.20;99.90;;;;;;5135520;27;20067;-91
2022/03/04 02:42:08;;;;;;;0.43;0.43;;;0.50;99.90;;;;;;5101726;27;20391;-91
2022/03/04 02:44:34;;;;;;;0.40;0.40;;;0.10;99.90;;;;;;5101722;27;20031;-91
2022/03/04 02:47:01;;;;;;;0.30;0.30;;;0.00;99.90;;;;;;5118063;27;20046;-89
2022/03/04 02:49:28;;;;;;;0.30;0.30;;;-0.80;99.90;;;;;;5118440;27;20395;-89
2022/03/04 02:51:57;;;;;;;0.35;0.35;;;-1.00;99.90;;;;;;5101354;27;20433;-89
2022/03/04 02:54:24;;;;;;;0.32;0.32;;;-0.80;99.90;;;;;;5101980;28;20046;-89
2022/03/04 02:56:51;;;;;;;0.30;0.30;;;0.20;99.90;;;;;;5101135;27;20039;-89
2022/03/04 02:59:18;;;;;;;0.30;0.30;;;-0.80;99.90;;;;;;5135061;27;20078;-91
2022/03/04 03:01:44;;;;;;;0.30;0.30;;;0.60;99.90;;;;;;5118362;27;20043;-89
2022/03/04 03:04:11;;;;;;;0.30;0.30;;;0.40;99.90;;;;;;5101437;27;20035;-89
2022/03/04 03:06:38;;;;;;;0.95;0.95;;;-0.80;99.90;;;;;;5101244;27;20509;-89
2022/03/04 03:09:05;;;;;;;0.30;0.30;;;-0.80;99.90;;;;;;5118312;27;20031;-89
2022/03/04 03:11:32;;;;;;;0.30;0.30;;;0.70;99.90;;;;;;5118176;27;20533;-91
2022/03/04 03:13:58;;;;;;;0.28;0.28;;;-0.70;99.90;;;;;;5101405;27;20047;-91
2022/03/04 03:16:25;;;;;;;0.30;0.30;;;-0.70;99.90;;;;;;5101468;28;20130;-89
2022/03/04 03:18:52;;;;;;;0.30;0.30;;;0.30;99.90;;;;;;5100168;28;20091;-89
2022/03/04 03:21:19;;;;;;;0.22;0.22;;;0.00;99.90;;;;;;5134408;28;20078;-89
2022/03/04 03:23:46;;;;;;;0.30;0.30;;;0.70;99.90;;;;;;5101667;28;20043;-90
2022/03/04 03:26:12;;;;;;;0.40;0.40;;;0.10;99.90;;;;;;5134636;28;20046;-89
2022/03/04 03:28:39;;;;;;;0.55;0.55;;;0.60;99.90;;;;;;5118332;28;20042;-91
2022/03/04 03:31:07;;;;;;;0.30;0.30;;;0.50;99.90;;;;;;5117981;28;20047;-89
2022/03/04 03:33:36;;;;;;;0.35;0.35;;;-0.60;99.90;;;;;;5101367;28;20042;-89
2022/03/04 03:36:04;;;;;;;0.30;0.30;;;0.40;99.90;;;;;;5101542;28;20035;-91
2022/03/04 03:38:31;;;;;;;0.30;0.30;;;-0.60;99.90;;;;;;5134552;28;20039;-91
2022/03/04 03:41:01;;;;;;;0.30;0.30;;;-0.60;99.90;;;;;;5133835;28;20088;-90
2022/03/04 03:43:28;;;;;;;0.30;0.30;;;-0.10;99.90;;;;;;5117661;28;20039;-89
2022/03/04 03:45:54;;;;;;;0.30;0.30;;;-0.60;99.90;;;;;;5100746;28;20049;-91
2022/03/04 03:48:21;;;;;;;0.30;0.30;;;0.70;99.90;;;;;;5117344;28;20118;-89
2022/03/04 03:50:48;;;;;;;0.30;0.30;;;0.20;99.90;;;;;;5117499;28;20157;-90
2022/03/04 03:53:14;;;;;;;0.40;0.40;;;-0.60;99.90;;;;;;5134281;28;20031;-90
2022/03/04 03:55:42;;;;;;;0.30;0.30;;;0.40;99.90;;;;;;5100978;28;20430;-91
2022/03/04 03:58:08;;;;;;;0.30;0.30;;;0.50;99.90;;;;;;5101225;28;20130;-91
2022/03/04 04:00:35;;;;;;;0.40;0.40;;;0.70;99.90;;;;;;5117606;28;20125;-89
2022/03/04 04:03:02;;;;;;;0.30;0.30;;;0.90;99.90;;;;;;5117580;28;20049;-90
2022/03/04 04:05:28;;;;;;;1.20;0.43;;;-0.50;99.90;;;;;;5117502;28;20148;-89
2022/03/04 04:07:55;;;;;;;0.30;0.30;;;-0.70;99.90;;;;;;5117176;28;20031;-89
2022/03/04 04:10:22;;;;;;;0.30;0.30;;;0.30;99.90;;;;;;5100856;28;20035;-89
2022/03/04 04:12:49;;;;;;;0.30;0.30;;;0.50;99.90;;;;;;5101033;28;20031;-90
2022/03/04 04:15:15;;;;;;;0.30;0.30;;;0.30;99.90;;;;;;5100556;28;20093;-89
2022/03/04 04:17:42;;;;;;;0.28;0.28;;;0.40;99.90;;;;;;5134956;28;20395;-89
2022/03/04 04:20:09;;;;;;;0.30;0.30;;;0.60;99.90;;;;;;5133726;28;20126;-91
2022/03/04 04:22:36;;;;;;;0.30;0.30;;;-0.50;99.90;;;;;;5134416;28;20043;-89
2022/03/04 04:25:03;;;;;;;0.30;0.30;;;0.40;99.90;;;;;;5117281;28;20039;-90
2022/03/04 04:27:30;;;;;;;0.38;0.38;;;-0.50;99.90;;;;;;5101022;28;20050;-89
2022/03/04 04:29:57;;;;;;;0.40;0.40;;;;;;;;;;5134074;28;20506;-91
2022/03/04 04:32:24;;;;;;;0.30;0.30;;;-0.50;99.90;;;;;;5133769;28;20031;-91
2022/03/04 04:34:50;;;;;;;0.35;0.35;;;1.00;99.90;;;;;;5120186;27;20032;-89
2022/03/04 04:37:17;;;;;;;0.30;0.30;;;0.60;99.90;;;;;;5137182;27;20043;-89
2022/03/04 04:39:44;;;;;;;0.30;0.30;;;0.50;99.90;;;;;;5120675;27;20697;-90
2022/03/04 04:42:11;;;;;;;0.30;0.30;;;0.60;99.90;;;;;;5103689;27;20095;-90
2022/03/04 04:44:37;;;;;;;0.30;0.30;;;0.80;99.90;;;;;;5121042;27;20043;-89
2022/03/04 04:47:06;;;;;;;0.35;0.35;;;-0.50;99.90;;;;;;5103409;27;20035;-92
2022/03/04 04:49:36;;;;;;;0.30;0.30;;;-0.50;99.90;;;;;;5104646;27;20042;-89
2022/03/04 04:52:08;;;;;;;0.30;0.30;;;0.50;99.90;;;;;;5120333;27;20072;-89
2022/03/04 04:54:35;;;;;;;0.30;0.30;;;-0.40;99.90;;;;;;5137230;27;20088;-91
2022/03/04 04:57:03;;;;;;;0.30;0.30;;;-0.40;99.90;;;;;;5137071;27;20039;-89
2022/03/04 04:59:30;;;;;;;0.30;0.30;;;-0.40;99.90;;;;;;5120538;27;20039;-90
2022/03/04 05:01:57;;;;;;;0.30;0.30;;;;;;;;;;5104104;27;20095;-91
2022/03/04 05:04:24;;;;;;;0.40;0.40;;;-0.40;99.90;;;;;;5137386;27;20130;-89
2022/03/04 05:06:51;;;;;;;0.40;0.40;;;-0.40;99.90;;;;;;5120264;27;20133;-91
2022/03/04 05:09:18;;;;;;;0.32;0.32;;;-0.40;99.90;;;;;;5120353;27;20068;-91
2022/03/04 05:11:45;;;;;;;0.30;0.30;;;-0.30;99.90;;;;;;5103582;27;20045;-89
2022/03/04 05:14:11;;;;;;;0.32;0.32;;;0.90;99.90;;;;;;5119980;27;20142;-91
2022/03/04 05:16:38;;;;;;;0.30;0.30;;;-0.40;99.90;;;;;;5120098;27;20085;-90
2022/03/04 05:19:05;;;;;;;0.25;0.25;;;-1.40;99.90;;;;;;5145176;27;20055;-89
2022/03/04 05:21:32;;;;;;;0.30;0.30;;;0.60;99.90;;;;;;5126260;27;20039;-89
2022/03/04 05:23:59;;;;;;;0.35;0.35;;;-0.40;99.90;;;;;;5115194;27;20116;-90
2022/03/04 05:26:27;;;;;;;0.30;0.30;;;0.30;99.90;;;;;;5119386;27;20043;-89
2022/03/04 05:28:55;;;;;;;0.32;0.32;;;-0.40;99.90;;;;;;5136443;27;20069;-90
2022/03/04 05:31:22;;;;;;;0.40;0.40;;;-0.10;99.90;;;;;;5119302;27;20035;-91
2022/03/04 05:33:50;;;;;;;0.30;0.30;;;-0.40;99.90;;;;;;5121439;28;20083;-89
2022/03/04 05:36:18;;;;;;;0.40;0.40;;;0.80;99.90;;;;;;5123969;27;20039;-90
2022/03/04 05:38:46;;;;;;;0.30;0.30;;;1.00;99.90;;;;;;5119880;27;20039;-91
2022/03/04 05:41:13;;;;;;;0.40;0.40;;;0.10;99.90;;;;;;5135783;27;20043;-91
2022/03/04 05:43:40;;;;;;;0.32;0.32;;;-0.30;99.90;;;;;;5136031;27;20505;-89
2022/03/04 05:46:06;;;;;;;0.35;0.35;;;0.90;99.90;;;;;;5102742;27;20074;-90
2022/03/04 05:48:40;;;;;;;0.30;0.30;;;1.00;99.90;;;;;;5137329;27;20039;-91
2022/03/04 05:51:07;;;;;;;0.30;0.30;;;-0.50;99.90;;;;;;5119599;27;20039;-90
2022/03/04 05:53:34;;;;;;;0.25;0.25;;;-0.30;99.90;;;;;;5136553;27;20080;-91
2022/03/04 05:56:02;;;;;;;0.30;0.30;;;-0.30;99.90;;;;;;5119165;27;20402;-91
2022/03/04 05:58:29;;;;;;;0.30;0.30;;;0.00;99.90;;;;;;5118852;27;20134;-90
2022/03/04 06:00:56;;;;;;;0.40;0.40;;;0.40;99.90;;;;;;5119484;27;20129;-90
2022/03/04 06:03:22;;;;;;;0.30;0.30;;;0.70;99.90;;;;;;5119277;27;20493;-90
2022/03/04 06:05:49;;;;;;;0.30;0.30;;;-0.40;99.90;;;;;;5119422;27;20130;-91
2022/03/04 06:08:16;;;;;;;0.40;0.40;;;-0.50;99.90;;;;;;5102082;27;20039;-91
2022/03/04 06:10:43;;;;;;;0.30;0.30;;;1.10;99.90;;;;;;5118788;27;20084;-90
2022/03/04 06:13:11;;;;;;;0.30;0.30;;;0.90;99.90;;;;;;5102029;27;20656;-90
2022/03/04 06:15:40;;;;;;;0.40;0.40;;;1.00;99.90;;;;;;5119344;27;20075;-92
2022/03/04 06:18:07;;;;;;;0.30;0.30;;;0.70;99.90;;;;;;5101910;27;20078;-90
2022/03/04 06:20:37;;;;;;;0.30;0.30;;;-0.30;99.90;;;;;;5135575;27;20058;-92
2022/03/04 06:23:04;;;;;;;0.30;0.30;;;-0.30;99.90;;;;;;5101965;27;20385;-92
2022/03/04 06:25:31;;;;;;;0.30;0.30;;;-0.30;99.90;;;;;;5118126;27;20039;-90
2022/03/04 06:27:59;;;;;;;0.30;0.30;;;-0.30;99.90;;;;;;5121575;27;20050;-92
2022/03/04 06:30:29;;;;;;;0.30;0.30;;;-0.30;99.90;;;;;;5140772;27;20045;-91
2022/03/04 06:35:43;;;;;;;;;;;0.40;99.90;;;;;;5150305;27;20050;-92
2022/03/04 06:38:10;;;;;;;0.40;0.40;;;-0.20;99.90;;;;;;5135369;27;20459;-90
2022/03/04 06:40:37;;;;;;;0.30;0.30;;;0.30;99.90;;;;;;5134634;27;20167;-90
2022/03/04 06:43:10;;;;;;;0.30;0.30;;;-0.20;99.90;;;;;;5118175;27;20079;-92
2022/03/04 06:45:39;;;;;;;0.30;0.30;;;-0.20;99.90;;;;;;5102592;27;20058;-92
2022/03/04 06:48:06;;;;;;;0.20;0.20;;;-0.20;99.90;;;;;;5118613;27;20514;-92
2022/03/04 06:50:33;;;;;;;0.30;0.30;;;-0.20;99.90;;;;;;5101156;27;20035;-92
2022/03/04 06:52:59;;;;;;;0.30;0.30;;;-0.20;99.90;;;;;;5101586;27;20035;-90
2022/03/04 06:55:27;;;;;;;0.30;0.30;;;0.80;99.90;;;;;;5134587;27;20051;-92
2022/03/04 06:57:55;;;;;;;0.30;0.30;;;-0.10;99.90;;;;;;5117616;27;20476;-90
2022/03/04 07:00:22;;;;;;;0.40;0.40;;;1.00;99.90;;;;;;5101540;27;20138;-90
2022/03/04 07:02:49;;;;;;;0.30;0.30;;;-0.10;99.90;;;;;;5134857;27;20053;-91
2022/03/04 07:05:16;;;;;;;0.30;0.30;;;-0.10;99.90;;;;;;5117696;28;20121;-92
2022/03/04 07:07:43;;;;;;;0.30;0.30;;;0.70;99.90;;;;;;5101147;27;20039;-91
2022/03/04 07:10:12;;;;;;;0.30;0.30;;;1.20;99.90;;;;;;5134391;27;20092;-92
2022/03/04 07:12:39;;;;;;;0.30;0.30;;;0.50;99.90;;;;;;5117731;28;20126;-89
2022/03/04 07:15:07;;;;;;;0.30;0.30;;;0.10;99.90;;;;;;5101440;27;20455;-91
2022/03/04 07:17:34;;;;;;;0.30;0.30;;;0.00;99.90;;;;;;5134573;28;20043;-89
2022/03/04 07:20:01;;;;;;;0.30;0.30;;;0.10;99.90;;;;;;5117626;28;20058;-89
2022/03/04 07:22:28;;;;;;;0.30;0.30;;;1.30;99.90;;;;;;5117368;28;20039;-92
2022/03/04 07:24:55;;;;;;;0.30;0.30;;;0.00;99.90;;;;;;5151243;28;20550;-92
2022/03/04 07:27:22;;;;;;;0.20;0.20;;;1.00;99.90;;;;;;5151260;28;20047;-93
2022/03/04 07:29:48;;;;;;;0.20;0.20;;;0.00;99.90;;;;;;5144594;28;20118;-91
2022/03/04 07:32:15;;;;;;;0.30;0.30;;;0.80;99.90;;;;;;5134982;28;20092;-90
2022/03/04 07:34:42;;;;;;;0.30;0.30;;;0.30;99.90;;;;;;5133769;28;20031;-93
2022/03/04 07:37:09;;;;;;;0.30;0.30;;;0.30;99.90;;;;;;5112166;27;20075;-92
2022/03/04 07:39:35;;;;;;;0.30;0.30;;;0.40;99.90;;;;;;5137605;27;20042;-89
2022/03/04 07:42:04;;;;;;;0.30;0.30;;;0.80;99.90;;;;;;5118243;28;20035;-90
2022/03/04 07:44:30;;;;;;;0.30;0.30;;;-0.10;99.90;;;;;;5097090;28;20105;-89
2022/03/04 07:46:58;;;;;;;0.30;0.30;;;1.30;99.90;;;;;;5097749;28;20032;-90
2022/03/04 07:49:24;;;;;;;0.30;0.30;;;1.00;99.90;;;;;;5096708;28;20396;-90
2022/03/04 07:51:51;;;;;;;0.30;0.30;;;0.40;99.90;;;;;;5097273;28;20031;-93
2022/03/04 07:54:18;;;;;;;0.20;0.20;;;0.60;99.90;;;;;;5114193;28;20065;-94
2022/03/04 07:56:45;;;;;;;0.30;0.30;;;0.00;99.90;;;;;;5113683;28;20573;-90
2022/03/04 07:59:11;;;;;;;0.30;0.30;;;0.70;99.90;;;;;;5097333;28;20054;-90
2022/03/04 08:01:38;;;;;;;0.30;0.30;;;0.20;99.90;;;;;;5126807;28;20404;-94
2022/03/04 08:04:06;;;;;;;0.30;0.30;;;0.10;99.90;;;;;;5117447;28;20096;-93
2022/03/04 08:06:33;;;;;;;0.30;0.30;;;1.60;99.90;;;;;;5133918;28;20032;-94
2022/03/04 08:09:00;;;;;;;0.30;0.30;;;0.10;99.90;;;;;;5137681;27;20080;-94
2022/03/04 08:11:28;;;;;;;0.30;0.30;;;0.90;99.90;;;;;;5120995;27;20127;-93
2022/03/04 08:13:55;;;;;;;0.30;0.30;;;0.20;99.90;;;;;;5121311;27;20041;-93
2022/03/04 08:16:24;;;;;;;0.30;0.30;;;0.40;99.90;;;;;;5119291;27;20478;-92
2022/03/04 08:18:51;;;;;;;0.98;0.95;;;1.60;99.90;;;;;;5119686;27;20147;-91
2022/03/04 08:21:18;;;;;;;0.30;0.30;;;1.40;99.90;;;;;;5135318;27;20042;-89
2022/03/04 08:23:45;;;;;;;0.30;0.30;;;1.50;99.90;;;;;;5119672;27;20092;-90
2022/03/04 08:26:12;;;;;;;0.20;0.20;;;0.50;99.90;;;;;;5103780;27;20031;-93
2022/03/04 08:28:39;;;;;;;0.30;0.30;;;0.60;99.90;;;;;;5120020;27;20495;-89
2022/03/04 08:31:11;;;;;;;0.30;0.30;;;1.20;99.90;;;;;;5137154;27;20062;-94
2022/03/04 08:33:39;;;;;;;0.30;0.30;;;0.60;99.90;;;;;;5137240;27;20031;-91
2022/03/04 08:36:05;;;;;;;0.30;0.30;;;1.50;99.90;;;;;;5120462;27;20043;-90
2022/03/04 08:38:32;;;;;;;0.30;0.30;;;0.50;99.90;;;;;;5120499;27;20095;-88
2022/03/04 08:40:59;;;;;;;0.20;0.20;;;2.30;99.90;;;;;;5120544;27;20035;-89
2022/03/04 08:43:31;;;;;;;0.30;0.30;;;0.90;99.90;;;;;;5153622;27;20092;-87
2022/03/04 08:45:58;;;;;;;0.30;0.30;;;0.90;99.90;;;;;;5137491;27;20043;-92
2022/03/04 08:48:24;;;;;;;0.25;0.25;;;1.00;99.90;;;;;;5137173;27;20047;-92
2022/03/04 08:50:51;;;;;;;0.30;0.30;;;1.20;99.90;;;;;;5136437;27;20038;-89
2022/03/04 08:53:18;;;;;;;0.30;0.30;;;1.40;99.90;;;;;;5103494;27;20036;-93
2022/03/04 08:55:45;;;;;;;0.30;0.30;;;1.80;99.90;;;;;;5103102;27;20043;-92
2022/03/04 08:58:12;;;;;;;0.30;0.30;;;2.60;99.90;;;;;;5119783;27;20090;-89
2022/03/04 09:00:40;;;;;;;0.30;0.30;;;1.90;99.90;;;;;;5118936;27;20042;-90
2022/03/04 09:03:07;;;;;;;0.20;0.20;;;1.50;99.90;;;;;;5119612;27;20039;-93
2022/03/04 09:05:34;;;;;;;0.30;0.30;;;1.60;99.90;;;;;;5135387;27;20506;-93
2022/03/04 09:08:04;;;;;;;0.20;0.20;;;1.90;99.90;;;;;;5136926;27;20070;-96
2022/03/04 09:10:31;;;;;;;0.20;0.20;;;1.80;99.90;;;;;;5135900;27;20035;-92
2022/03/04 09:12:58;;;;;;;0.20;0.20;;;1.80;99.90;;;;;;5153925;27;20078;-88
2022/03/04 09:15:25;;;;;;;0.20;0.20;;;2.90;99.90;;;;;;5136435;27;20039;-92
2022/03/04 09:17:52;;;;;;;0.25;0.25;;;3.40;99.90;;;;;;5136050;27;20065;-96
2022/03/04 09:20:19;;;;;;;0.20;0.20;;;2.10;99.90;;;;;;5118634;27;20147;-95
2022/03/04 09:22:47;;;;;;;0.20;0.20;;;2.20;99.90;;;;;;5135816;27;20061;-93
2022/03/04 09:25:14;;;;;;;0.20;0.20;;;2.30;99.90;;;;;;5136389;27;20172;-89
2022/03/04 09:27:42;;;;;;;0.25;0.25;;;2.30;99.90;;;;;;5135828;27;20122;-95
2022/03/04 09:30:11;;;;;;;0.20;0.20;;;2.40;99.90;;;;;;5135866;27;20044;-94
2022/03/04 09:32:39;;;;;;;0.20;0.20;;;2.50;99.90;;;;;;5135274;27;20781;-87
2022/03/04 09:35:08;;;;;;;0.20;0.20;;;2.50;99.90;;;;;;5135529;27;20074;-95
2022/03/04 09:37:35;;;;;;;0.20;0.20;;;2.70;99.90;;;;;;5135867;27;20081;-89
2022/03/04 09:40:04;;;;;;;0.20;0.20;;;2.80;99.90;;;;;;5135462;27;20035;-89
2022/03/04 09:42:35;;;;;;;0.25;0.25;;;2.90;99.90;;;;;;5135119;27;20130;-88
2022/03/04 09:45:03;;;;;;;0.20;0.20;;;4.20;99.90;;;;;;5119088;27;20840;-87
2022/03/04 09:47:30;;;;;;;0.20;0.20;;;3.10;99.90;;;;;;5118382;27;20071;-93
2022/03/04 09:49:58;;;;;;;0.20;0.20;;;4.20;99.90;;;;;;5118900;27;20031;-94
2022/03/04 09:52:25;;;;;;;0.20;0.20;;;3.30;99.90;;;;;;5134875;27;20039;-91
2022/03/04 09:54:53;;;;;;;0.20;0.20;;;3.30;99.90;;;;;;5135149;27;20100;-91
2022/03/04 09:57:20;;;;;;;0.20;0.20;;;2.40;99.90;;;;;;5118814;27;20047;-94
2022/03/04 09:59:47;;;;;;;0.20;0.20;;;4.50;99.90;;;;;;5136160;27;20095;-90
2022/03/04 10:02:14;;;;;;;0.20;0.20;;;4.70;99.90;;;;;;5118551;27;20487;-91
2022/03/04 10:04:41;;;;;;;0.30;0.30;;;3.80;99.90;;;;;;5117942;27;20496;-86
2022/03/04 10:07:15;;;;;;;0.20;0.20;;;3.80;99.90;;;;;;5118251;27;20046;-90
2022/03/04 10:09:47;;;;;;;0.20;0.20;;;3.80;99.90;;;;;;5135575;27;20082;-88
2022/03/04 10:12:17;;;;;;;0.20;0.20;;;3.90;99.90;;;;;;5129614;27;20050;-93
2022/03/04 10:15:01;;;;;;;0.20;0.20;;;4.00;99.90;;;;;;5134871;27;20065;-89
2022/03/04 10:17:28;;;;;;;0.20;0.20;;;4.10;99.90;;;;;;5135081;27;20436;-88
2022/03/04 10:19:57;;;;;;;0.20;0.20;;;5.50;99.90;;;;;;5133438;27;20079;-87
2022/03/04 10:22:42;;;;;;;0.20;0.20;;;4.30;99.90;;;;;;5134672;27;20167;-92
2022/03/04 10:25:22;;;;;;;0.10;0.10;;;4.40;99.90;;;;;;5135051;27;20082;-89
2022/03/04 10:27:49;;;;;;;0.20;0.20;;;4.40;99.90;;;;;;5134477;27;20050;-91
2022/03/04 10:30:17;;;;;;;0.20;0.20;;;4.60;99.90;;;;;;5166593;27;20038;-94
2022/03/04 10:32:44;;;;;;;0.13;0.13;;;4.50;99.90;;;;;;5116785;27;20051;-94
2022/03/04 10:35:14;;;;;;;0.10;0.10;;;4.70;99.90;;;;;;5150946;27;20555;-88
2022/03/04 10:37:42;;;;;;;0.10;0.10;;;4.80;99.90;;;;;;5134556;27;20179;-91
2022/03/04 10:40:12;;;;;;;0.20;0.20;;;4.90;99.90;;;;;;5134327;27;20392;-90
2022/03/04 10:42:52;;;;;;;0.17;0.17;;;5.00;99.90;;;;;;5134000;27;20035;-90
2022/03/04 10:45:25;;;;;;;0.10;0.10;;;5.10;99.90;;;;;;5134953;27;20078;-90
2022/03/04 10:47:54;;;;;;;0.20;0.20;;;5.10;99.90;;;;;;5134091;27;20041;-91
2022/03/04 10:50:29;;;;;;;0.20;0.20;;;5.20;99.90;;;;;;5134020;27;20035;-92
2022/03/04 10:53:02;;;;;;;0.85;0.65;;;5.30;99.90;;;;;;5134589;27;20040;-91
2022/03/04 10:55:42;;;;;;;0.10;0.10;;;5.30;99.90;;;;;;5134478;27;20046;-94
2022/03/04 10:58:21;;;;;;;0.10;0.10;;;5.40;99.90;;;;;;5134465;27;20708;-93
2022/03/04 11:00:54;;;;;;;0.10;0.10;;;5.40;99.90;;;;;;5134116;27;20054;-88
2022/03/04 11:03:31;;;;;;;0.10;0.10;;;5.60;99.90;;;;;;5116883;27;20510;-94
2022/03/04 11:06:04;;;;;;;0.10;0.10;;;5.40;99.90;;;;;;5135058;27;20039;-88
2022/03/04 11:08:31;;;;;;;0.10;0.10;;;5.50;99.90;;;;;;5134079;27;20038;-94
2022/03/04 11:10:59;;;;;;;0.10;0.10;;;5.50;99.90;;;;;;5116598;27;20459;-87
2022/03/04 11:13:26;;;;;;;0.35;0.35;;;5.50;99.90;;;;;;5117600;27;20035;-87
2022/03/04 11:15:54;;;;;;;0.10;0.10;;;5.60;99.90;;;;;;5117347;27;20035;-95
2022/03/04 11:18:22;;;;;;;0.10;0.10;;;5.70;99.90;;;;;;5117504;27;20076;-88
2022/03/04 11:20:56;;;;;;;0.10;0.10;;;7.00;99.90;;;;;;5116648;27;20082;-93
2022/03/04 11:23:28;;;;;;;0.13;0.13;;;5.70;99.90;;;;;;5126397;27;20121;-93
2022/03/04 11:26:00;;;;;;;0.20;0.20;;;5.70;99.90;;;;;;5118830;28;20039;-88
2022/03/04 11:28:39;;;;;;;0.20;0.20;;;5.60;99.90;;;;;;5133782;28;20035;-94
2022/03/04 11:31:08;;;;;;;0.10;0.10;;;5.60;99.90;;;;;;5133892;28;20046;-87
2022/03/04 11:33:44;;;;;;;0.10;0.10;;;5.70;99.90;;;;;;5133137;28;20039;-87
2022/03/04 11:36:19;;;;;;;0.20;0.20;;;5.70;99.90;;;;;;5133546;28;20104;-95
2022/03/04 11:38:49;;;;;;;0.10;0.10;;;5.80;99.90;;;;;;5133492;28;20042;-87
2022/03/04 11:41:30;;;;;;;0.10;0.10;;;5.80;99.90;;;;;;5133243;28;20058;-88
2022/03/04 11:44:09;;;;;;;0.10;0.10;;;5.90;99.90;;;;;;5136929;27;20031;-95
2022/03/04 11:46:46;;;;;;;0.10;0.10;;;5.90;99.90;;;;;;5138079;27;20035;-88
2022/03/04 11:49:30;;;;;;;0.10;0.10;;;5.20;99.90;;;;;;5146549;27;20143;-90
2022/03/04 11:52:12;;;;;;;0.22;0.22;;;6.00;99.90;;;;;;5154915;27;20035;-88
2022/03/04 11:54:44;;;;;;;0.10;0.10;;;6.00;99.90;;;;;;5137837;27;20329;-89
2022/03/04 11:57:24;;;;;;;0.10;0.10;;;5.90;99.90;;;;;;5137436;27;20046;-83
2022/03/04 11:59:54;;;;;;;0.10;0.10;;;5.90;99.90;;;;;;5136940;27;20399;-88
2022/03/04 12:02:36;;;;;;;0.10;0.10;;;6.00;99.90;;;;;;5137152;27;20047;-89
2022/03/04 12:05:12;;;;;;;0.10;0.10;;;5.90;99.90;;;;;;5137321;27;20490;-89
2022/03/04 12:07:45;;;;;;;0.13;0.13;;;5.80;99.90;;;;;;5137780;27;20047;-88
2022/03/04 12:10:17;;;;;;;0.10;0.10;;;6.00;99.90;;;;;;5137046;27;20077;-89
2022/03/04 12:12:59;;;;;;;0.10;0.10;;;5.90;99.90;;;;;;5120095;27;20403;-94
2022/03/04 12:15:37;;;;;;;0.10;0.10;;;5.90;99.90;;;;;;5154925;27;20058;-94
2022/03/04 12:18:25;;;;;;;0.10;0.10;;;5.90;99.90;;;;;;5153872;27;20074;-94
2022/03/04 12:21:25;;;;;;;0.20;0.20;;;6.00;99.90;;;;;;5133105;28;20059;-94
2022/03/04 12:23:58;;;;;;;0.10;0.10;;;6.10;99.90;;;;;;5081025;28;20039;-94
2022/03/04 12:26:37;;;;;;;0.10;0.10;;;5.90;99.90;;;;;;5133541;28;20108;-88
2022/03/04 12:29:13;;;;;;;0.20;0.20;;;6.00;99.90;;;;;;5133473;28;20042;-89
2022/03/04 12:31:44;;;;;;;0.10;0.10;;;6.00;99.90;;;;;;5133234;28;20039;-92
2022/03/04 12:34:30;;;;;;;0.40;0.40;;;6.10;99.90;;;;;;5133898;28;20035;-95
2022/03/04 12:36:58;;;;;;;0.10;0.10;;;6.10;99.90;;;;;;5133498;28;20093;-89
2022/03/04 12:39:25;;;;;;;0.10;0.10;;;6.10;99.90;;;;;;5133475;28;20049;-93
2022/03/04 12:41:56;;;;;;;0.10;0.10;;;6.20;99.90;;;;;;5099679;28;20044;-89
2022/03/04 12:44:24;;;;;;;0.10;0.10;;;6.20;99.90;;;;;;5116805;28;20047;-95
2022/03/04 12:46:52;;;;;;;0.30;0.20;;;6.30;99.90;;;;;;5115970;28;20046;-89
2022/03/04 12:49:29;;;;;;;0.10;0.10;;;6.30;99.90;;;;;;5100095;28;20396;-95
2022/03/04 12:51:56;;;;;;;0.10;0.10;;;6.20;99.90;;;;;;5133075;28;20098;-94
2022/03/04 12:54:28;;;;;;;0.10;0.10;;;6.20;99.90;;;;;;5130713;28;20048;-88
2022/03/04 12:57:04;;;;;;;0.10;0.10;;;6.20;99.90;;;;;;5133173;28;20043;-88
2022/03/04 12:59:44;;;;;;;0.10;0.10;;;6.20;99.90;;;;;;5133324;28;20047;-88
2022/03/04 13:02:10;;;;;;;0.10;0.10;;;6.20;99.90;;;;;;5133014;28;20092;-88
2022/03/04 13:04:37;;;;;;;0.30;0.30;;;6.30;99.90;;;;;;5133443;28;20484;-94